Airfield :
LOGIN :

Register | Disclaimer

   EN    FR    IT 

 










Legend :    VFR   Marginal VFR   IFR   Intensive IFR   Very Intensive IFR
Visi :
Ceiling :
>= 8 km
>= 3000ft
5 to 8 km
1000 to 3000 ft
1500m to 5 km
500 to 1000 ft
800 to 1500m
200 to 500 ft
< 800m
< 200 ft
Symbols :   Thunderstorms  Fog  Heavy snow  Heavy precipitations  Wind > 20 kt
SIGMETs :     Misc.  Thunderstorms  Icing  Turbulence  Mountain Waves  Volcanic Ashes







- Airport Elevation : 0 ft


ETEB - Ansbach Army Heliport

CURRENT METAR :
  • 131956Z AUTO 06011KT 9999 OVC025 M02/M06 A3000 RMK AO2 SLP204 T10191056 $

EXPIRED METARs :
  • 131856Z AUTO 06008KT 9999 OVC025 M02/M05 A3001 RMK AO2 SLP208 T10171052 $
  • 131756Z AUTO 06010KT 9999 OVC027 M02/M05 A3000 RMK AO2 SLP204 T10171054 11007 21017 50000 $

TAF TAF ETEB
Valid from the 13 at 14:00 until the 14 at 20:00 UTC


131405Z 1314/1420 07012KT 9999 BKN020 620209 QNH2997INS
BECMG 1321/1322 07009KT 9999 SCT020 QNH3003INS
BECMG 1414/1415 08009KT 9999 BKN020 QNH3008INS TXM01/1315Z TNM04/1407Z
No reported NOTAMs for that airfield.



MET'MAP, your aeronautical weather chart ! - Copyright ORBIFLY December 2007 - Disclaimer

ORBIFLY MET'MAP TEAM :

Programming & Development : Alexandra Zaïnal
Concept & Development : Baudouin d'Aumeries
Co-Development & Prog : Marc-Olivier Méhu
Technical & hardware support : Manuel Goepfert

Contact : metmap@orbifly.com




SOURCES & CREDITS :

   NOAA